x

Newport, Or (nwpo3) Weather Station

1:00pm - Mon 26th Jun 2017 All times are PDT. -7 hours from GMT.

  • Wind
    7mph, 9mph gusts
  • Air Temp 57°f
  • Sea Pressure 1017.8mb
  • Newport, Or
  • Newport, Or

More Historic Weather Station data

Upgrade to MSW Pro to gain access to the past 30 days of data for over 8000 Wavebouys and Weather Stations around the globe.

Join Pro

Comparision Forecast

View Surf forecast
   
Mon 06/26 1:00pm 7 9 mph 1017.8mb 57f
12:00pm 11 14 mph 1017.7mb 56f
11:00am 9 11 mph 1017.6mb 55f
10:00am 10 11 mph 1017.3mb 55f
9:00am 6 8 mph 1017mb 55f
8:00am 7 9 mph 1016.6mb 55f
7:00am 6 6 mph 1016.4mb 54f
6:00am 5 6 mph 1016.2mb 54f
5:00am 5 6 mph 1016.2mb 53f
4:00am 6 6 mph 1016.1mb 54f
3:00am 9 10 mph 1016.2mb 54f
2:00am 6 7 mph 1016mb 53f
1:00am 8 9 mph 1016.4mb 54f
12:00am 3 5 mph 1016.3mb 55f
Sun 06/25 11:00pm 5 5 mph 1016.1mb 55f
10:00pm 10 13 mph 1016.6mb 55f
9:00pm 9 11 mph 1016mb 55f
8:00pm 10 13 mph 1016.3mb 54f
7:00pm 9 10 mph 1016mb 54f
6:00pm 5 7 mph 1015.6mb 55f
5:00pm 3 6 mph 1015.5mb 55f
4:00pm 8 10 mph 1015.5mb 54f
3:00pm 13 15 mph 1015.7mb 55f
2:00pm 11 15 mph 1015.5mb 55f
1:00pm 11 14 mph 1015.2mb 54f
12:00pm 10 13 mph 1015.1mb 54f
11:00am 9 11 mph 1014.5mb 54f
10:00am 8 10 mph 1014mb 54f
9:00am 5 6 mph 1013.9mb 54f
8:00am 13 15 mph 1013.4mb 55f
7:00am 5 7 mph 1013.1mb 54f
6:00am 2 2 mph 1012.9mb 53f
5:00am 2 3 mph 1012.5mb 53f
4:00am 5 5 mph 1012.4mb 52f
3:00am 1 2 mph 1012.7mb 52f
2:00am 3 3 mph 1013.2mb 52f
1:00am 6 6 mph 1013.1mb 51f
12:00am 10 11 mph 1013.2mb 52f
Sat 06/24 11:00pm 15 18 mph 1013.2mb 53f
10:00pm 16 17 mph 1013.2mb 54f
9:00pm 21 24 mph 1012.3mb 55f
8:00pm 23 25 mph 1011.7mb 55f
7:00pm 7 8 mph 1010.9mb 63f
6:00pm 13 15 mph 1011.3mb 67f
5:00pm 14 16 mph 1011.9mb 68f
4:00pm 13 15 mph 1012.7mb 65f
3:00pm 13 14 mph 1013.2mb 65f
2:00pm 13 15 mph 1013.5mb 69f
1:00pm 10 11 mph 1014.1mb 69f
12:00pm 15 15 mph 1014.5mb 69f
11:00am 10 11 mph 1014.7mb 69f
10:00am 9 10 mph 1014.9mb 67f
9:00am 3 3 mph 1014.9mb 65f
8:00am 3 5 mph 1014.8mb 69f
7:00am 1 2 mph 1014.7mb 71f
6:00am 8 8 mph 1014.5mb 68f
5:00am 7 8 mph 1014.3mb 63f
4:00am 3 5 mph 1014.5mb 56f
3:00am 6 7 mph 1014.6mb 57f
2:00am 7 8 mph 1015.1mb 58f
1:00am 7 7 mph 1015.3mb 53f
12:00am 7 8 mph 1015.5mb 51f
Fri 06/23 11:00pm 9 10 mph 1015.7mb 51f
10:00pm 13 15 mph 1015.7mb 53f
9:00pm 16 20 mph 1015.4mb 56f
8:00pm 22 24 mph 1015.5mb 57f
7:00pm 24 26 mph 1015.6mb 56f
6:00pm 31 33 mph 1015.7mb 57f
5:00pm 32 34 mph 1016.2mb 58f
4:00pm 28 30 mph 1016.6mb 58f
3:00pm 26 30 mph 1016.9mb 57f
2:00pm 22 23 mph 1017.6mb 55f
1:00pm 16 18 mph 1018mb 55f
12:00pm 20 23 mph 1018.1mb 54f
11:00am 17 20 mph 1018.3mb 53f
10:00am 17 18 mph 1018.6mb 52f
9:00am 9 9 mph 1018.9mb 51f
8:00am 5 5 mph 1019mb 50f
7:00am 5 6 mph 1019.3mb 49f
6:00am 1 2 mph 1019.2mb 50f
5:00am 3 3 mph 1019.3mb 51f
4:00am 2 3 mph 1019.5mb 50f
3:00am 2 3 mph 1019.8mb 51f
2:00am 6 7 mph 1020.3mb 51f
1:00am 3 5 mph 1020.4mb 51f
12:00am 10 13 mph 1020.4mb 51f
Thu 06/22 11:00pm 14 15 mph 1020.6mb 52f
10:00pm 16 18 mph 1020.8mb 54f